sensor_id;sensor_type;location;lat;lon;timestamp;pressure;altitude;pressure_sealevel;temperature
24278;BMP280;12394;42.692;23.314;2023-05-29T00:00:32;94773.28;;;14.71
24278;BMP280;12394;42.692;23.314;2023-05-29T00:02:58;94790.31;;;14.66
24278;BMP280;12394;42.692;23.314;2023-05-29T00:05:23;94782.84;;;14.64
24278;BMP280;12394;42.692;23.314;2023-05-29T00:07:49;94782.19;;;14.60
24278;BMP280;12394;42.692;23.314;2023-05-29T00:10:16;94778.50;;;14.58
24278;BMP280;12394;42.692;23.314;2023-05-29T00:12:42;94785.97;;;14.59
24278;BMP280;12394;42.692;23.314;2023-05-29T00:15:08;94775.88;;;14.58
24278;BMP280;12394;42.692;23.314;2023-05-29T00:17:35;94786.06;;;14.56
24278;BMP280;12394;42.692;23.314;2023-05-29T00:20:01;94788.38;;;14.54
24278;BMP280;12394;42.692;23.314;2023-05-29T00:22:28;94788.78;;;14.52
24278;BMP280;12394;42.692;23.314;2023-05-29T00:24:54;94782.13;;;14.48
24278;BMP280;12394;42.692;23.314;2023-05-29T00:27:19;94783.94;;;14.51
24278;BMP280;12394;42.692;23.314;2023-05-29T00:29:45;94793.72;;;14.50
24278;BMP280;12394;42.692;23.314;2023-05-29T00:32:10;94794.47;;;14.51
24278;BMP280;12394;42.692;23.314;2023-05-29T00:34:36;94782.84;;;14.64
24278;BMP280;12394;42.692;23.314;2023-05-29T00:37:01;94789.03;;;14.58
24278;BMP280;12394;42.692;23.314;2023-05-29T00:39:28;94787.78;;;14.62
24278;BMP280;12394;42.692;23.314;2023-05-29T00:41:53;94772.00;;;14.62
24278;BMP280;12394;42.692;23.314;2023-05-29T00:44:19;94779.19;;;14.75
24278;BMP280;12394;42.692;23.314;2023-05-29T00:46:50;94782.56;;;14.75
24278;BMP280;12394;42.692;23.314;2023-05-29T00:49:16;94782.28;;;14.57
24278;BMP280;12394;42.692;23.314;2023-05-29T00:51:42;94786.97;;;14.49
24278;BMP280;12394;42.692;23.314;2023-05-29T00:54:11;94769.69;;;14.32
24278;BMP280;12394;42.692;23.314;2023-05-29T00:56:41;94774.91;;;14.36
24278;BMP280;12394;42.692;23.314;2023-05-29T00:59:12;94775.72;;;14.33
24278;BMP280;12394;42.692;23.314;2023-05-29T01:01:38;94774.31;;;14.28
24278;BMP280;12394;42.692;23.314;2023-05-29T01:04:06;94781.16;;;14.25
24278;BMP280;12394;42.692;23.314;2023-05-29T01:06:32;94777.03;;;14.24
24278;BMP280;12394;42.692;23.314;2023-05-29T01:08:58;94755.50;;;14.13
24278;BMP280;12394;42.692;23.314;2023-05-29T01:14:10;94763.22;;;14.04
24278;BMP280;12394;42.692;23.314;2023-05-29T01:17:01;94765.06;;;14.07
24278;BMP280;12394;42.692;23.314;2023-05-29T01:22:19;94779.66;;;14.08
24278;BMP280;12394;42.692;23.314;2023-05-29T01:25:11;94781.00;;;14.16
24278;BMP280;12394;42.692;23.314;2023-05-29T01:27:37;94784.88;;;14.12
24278;BMP280;12394;42.692;23.314;2023-05-29T01:30:07;94783.38;;;14.11
24278;BMP280;12394;42.692;23.314;2023-05-29T01:32:33;94774.97;;;14.00
24278;BMP280;12394;42.692;23.314;2023-05-29T01:34:59;94776.88;;;13.99
24278;BMP280;12394;42.692;23.314;2023-05-29T01:37:24;94757.72;;;13.82
24278;BMP280;12394;42.692;23.314;2023-05-29T01:39:49;94774.75;;;13.94
24278;BMP280;12394;42.692;23.314;2023-05-29T01:42:15;94782.66;;;13.94
24278;BMP280;12394;42.692;23.314;2023-05-29T01:44:41;94766.69;;;13.85
24278;BMP280;12394;42.692;23.314;2023-05-29T01:47:07;94783.03;;;13.93
24278;BMP280;12394;42.692;23.314;2023-05-29T01:49:34;94772.94;;;13.91
24278;BMP280;12394;42.692;23.314;2023-05-29T01:52:01;94768.75;;;13.94
24278;BMP280;12394;42.692;23.314;2023-05-29T01:54:27;94770.28;;;13.91
24278;BMP280;12394;42.692;23.314;2023-05-29T01:56:52;94766.53;;;13.92
24278;BMP280;12394;42.692;23.314;2023-05-29T01:59:18;94775.16;;;13.93
24278;BMP280;12394;42.692;23.314;2023-05-29T02:01:44;94768.81;;;14.06
24278;BMP280;12394;42.692;23.314;2023-05-29T02:04:10;94778.13;;;14.11
24278;BMP280;12394;42.692;23.314;2023-05-29T02:06:35;94772.94;;;14.07
24278;BMP280;12394;42.692;23.314;2023-05-29T02:09:01;94768.31;;;13.95
24278;BMP280;12394;42.692;23.314;2023-05-29T02:11:27;94777.22;;;13.85
24278;BMP280;12394;42.692;23.314;2023-05-29T02:13:53;94767.19;;;13.80
24278;BMP280;12394;42.692;23.314;2023-05-29T02:16:19;94763.88;;;13.92
24278;BMP280;12394;42.692;23.314;2023-05-29T02:18:46;94760.28;;;14.02
24278;BMP280;12394;42.692;23.314;2023-05-29T02:21:11;94764.78;;;14.02
24278;BMP280;12394;42.692;23.314;2023-05-29T02:23:37;94762.09;;;13.89
24278;BMP280;12394;42.692;23.314;2023-05-29T02:26:04;94771.94;;;13.85
24278;BMP280;12394;42.692;23.314;2023-05-29T02:28:29;94760.75;;;13.81
24278;BMP280;12394;42.692;23.314;2023-05-29T02:30:55;94762.72;;;13.77
24278;BMP280;12394;42.692;23.314;2023-05-29T02:33:20;94757.25;;;13.71
24278;BMP280;12394;42.692;23.314;2023-05-29T02:35:45;94772.09;;;13.78
24278;BMP280;12394;42.692;23.314;2023-05-29T02:38:11;94773.25;;;13.77
24278;BMP280;12394;42.692;23.314;2023-05-29T02:40:36;94767.81;;;13.68
24278;BMP280;12394;42.692;23.314;2023-05-29T02:43:02;94783.09;;;13.73
24278;BMP280;12394;42.692;23.314;2023-05-29T02:45:27;94782.78;;;13.71
24278;BMP280;12394;42.692;23.314;2023-05-29T02:47:52;94775.69;;;13.68
24278;BMP280;12394;42.692;23.314;2023-05-29T02:50:18;94782.44;;;13.69
24278;BMP280;12394;42.692;23.314;2023-05-29T02:52:43;94781.28;;;13.70
24278;BMP280;12394;42.692;23.314;2023-05-29T02:55:09;94773.16;;;13.64
24278;BMP280;12394;42.692;23.314;2023-05-29T02:57:34;94776.03;;;13.70
24278;BMP280;12394;42.692;23.314;2023-05-29T03:00:01;94778.59;;;13.73
24278;BMP280;12394;42.692;23.314;2023-05-29T03:02:51;94775.47;;;13.78
24278;BMP280;12394;42.692;23.314;2023-05-29T03:05:16;94771.59;;;13.83
24278;BMP280;12394;42.692;23.314;2023-05-29T03:07:42;94779.75;;;13.89
24278;BMP280;12394;42.692;23.314;2023-05-29T03:10:08;94778.09;;;13.95
24278;BMP280;12394;42.692;23.314;2023-05-29T03:12:34;94777.53;;;14.03
24278;BMP280;12394;42.692;23.314;2023-05-29T03:15:00;94760.44;;;14.11
24278;BMP280;12394;42.692;23.314;2023-05-29T03:17:25;94777.44;;;14.23
24278;BMP280;12394;42.692;23.314;2023-05-29T03:19:51;94767.00;;;14.36
24278;BMP280;12394;42.692;23.314;2023-05-29T03:22:16;94768.56;;;14.33
24278;BMP280;12394;42.692;23.314;2023-05-29T03:24:41;94785.44;;;14.36
24278;BMP280;12394;42.692;23.314;2023-05-29T03:27:07;94782.44;;;14.50
24278;BMP280;12394;42.692;23.314;2023-05-29T03:29:33;94770.78;;;14.35
24278;BMP280;12394;42.692;23.314;2023-05-29T03:31:58;94790.19;;;14.41
24278;BMP280;12394;42.692;23.314;2023-05-29T03:34:24;94788.75;;;14.40
24278;BMP280;12394;42.692;23.314;2023-05-29T03:36:50;94792.81;;;14.41
24278;BMP280;12394;42.692;23.314;2023-05-29T03:39:15;94792.75;;;14.44
24278;BMP280;12394;42.692;23.314;2023-05-29T03:41:41;94792.97;;;14.50
24278;BMP280;12394;42.692;23.314;2023-05-29T03:44:06;94801.47;;;14.57
24278;BMP280;12394;42.692;23.314;2023-05-29T03:46:32;94810.25;;;14.67
24278;BMP280;12394;42.692;23.314;2023-05-29T03:48:57;94818.78;;;14.71
24278;BMP280;12394;42.692;23.314;2023-05-29T03:51:22;94813.34;;;14.78
24278;BMP280;12394;42.692;23.314;2023-05-29T03:53:48;94811.69;;;14.84
24278;BMP280;12394;42.692;23.314;2023-05-29T03:56:13;94814.75;;;14.95
24278;BMP280;12394;42.692;23.314;2023-05-29T03:58:38;94813.94;;;14.98
24278;BMP280;12394;42.692;23.314;2023-05-29T04:01:04;94800.34;;;15.00
24278;BMP280;12394;42.692;23.314;2023-05-29T04:03:30;94816.00;;;15.20
24278;BMP280;12394;42.692;23.314;2023-05-29T04:05:56;94823.31;;;15.28
24278;BMP280;12394;42.692;23.314;2023-05-29T04:08:21;94826.03;;;15.25
24278;BMP280;12394;42.692;23.314;2023-05-29T04:10:47;94828.56;;;15.28
24278;BMP280;12394;42.692;23.314;2023-05-29T04:13:12;94834.47;;;15.32
24278;BMP280;12394;42.692;23.314;2023-05-29T04:15:38;94832.50;;;15.36
24278;BMP280;12394;42.692;23.314;2023-05-29T04:18:03;94832.72;;;15.42
24278;BMP280;12394;42.692;23.314;2023-05-29T04:20:28;94836.72;;;15.46
24278;BMP280;12394;42.692;23.314;2023-05-29T04:22:54;94825.13;;;15.44
24278;BMP280;12394;42.692;23.314;2023-05-29T04:25:19;94829.59;;;15.60
24278;BMP280;12394;42.692;23.314;2023-05-29T04:27:45;94835.09;;;15.65
24278;BMP280;12394;42.692;23.314;2023-05-29T04:30:14;94831.44;;;15.75
24278;BMP280;12394;42.692;23.314;2023-05-29T04:32:40;94837.97;;;15.83
24278;BMP280;12394;42.692;23.314;2023-05-29T04:35:05;94832.06;;;15.92
24278;BMP280;12394;42.692;23.314;2023-05-29T04:37:31;94836.28;;;16.02
24278;BMP280;12394;42.692;23.314;2023-05-29T04:40:03;94833.88;;;16.08
24278;BMP280;12394;42.692;23.314;2023-05-29T04:42:34;94844.81;;;16.19
24278;BMP280;12394;42.692;23.314;2023-05-29T04:45:00;94853.16;;;16.30
24278;BMP280;12394;42.692;23.314;2023-05-29T04:47:25;94844.28;;;16.36
24278;BMP280;12394;42.692;23.314;2023-05-29T04:49:51;94850.81;;;16.44
24278;BMP280;12394;42.692;23.314;2023-05-29T04:52:17;94852.91;;;16.50
24278;BMP280;12394;42.692;23.314;2023-05-29T04:54:42;94853.53;;;16.54
24278;BMP280;12394;42.692;23.314;2023-05-29T04:57:08;94848.16;;;16.57
24278;BMP280;12394;42.692;23.314;2023-05-29T04:59:34;94869.69;;;16.68
24278;BMP280;12394;42.692;23.314;2023-05-29T05:02:00;94864.28;;;16.72
24278;BMP280;12394;42.692;23.314;2023-05-29T05:04:25;94864.81;;;16.79
24278;BMP280;12394;42.692;23.314;2023-05-29T05:06:50;94868.72;;;16.87
24278;BMP280;12394;42.692;23.314;2023-05-29T05:09:16;94875.56;;;16.98
24278;BMP280;12394;42.692;23.314;2023-05-29T05:11:42;94880.47;;;17.08
24278;BMP280;12394;42.692;23.314;2023-05-29T05:14:08;94878.09;;;17.23
24278;BMP280;12394;42.692;23.314;2023-05-29T05:16:33;94886.22;;;17.28
24278;BMP280;12394;42.692;23.314;2023-05-29T05:18:59;94890.81;;;17.37
24278;BMP280;12394;42.692;23.314;2023-05-29T05:21:26;94898.41;;;17.48
24278;BMP280;12394;42.692;23.314;2023-05-29T05:23:51;94893.84;;;17.48
24278;BMP280;12394;42.692;23.314;2023-05-29T05:26:16;94892.44;;;17.56
24278;BMP280;12394;42.692;23.314;2023-05-29T05:28:42;94879.16;;;17.47
24278;BMP280;12394;42.692;23.314;2023-05-29T05:31:07;94886.41;;;17.56
24278;BMP280;12394;42.692;23.314;2023-05-29T05:33:34;94892.34;;;17.60
24278;BMP280;12394;42.692;23.314;2023-05-29T05:35:59;94896.03;;;17.62
24278;BMP280;12394;42.692;23.314;2023-05-29T05:38:24;94893.13;;;17.69
24278;BMP280;12394;42.692;23.314;2023-05-29T05:40:50;94894.66;;;17.80
24278;BMP280;12394;42.692;23.314;2023-05-29T05:43:15;94901.03;;;17.91
24278;BMP280;12394;42.692;23.314;2023-05-29T05:45:40;94894.25;;;18.12
24278;BMP280;12394;42.692;23.314;2023-05-29T05:48:08;94891.06;;;18.35
24278;BMP280;12394;42.692;23.314;2023-05-29T05:50:33;94887.59;;;18.47
24278;BMP280;12394;42.692;23.314;2023-05-29T05:52:59;94885.72;;;18.57
24278;BMP280;12394;42.692;23.314;2023-05-29T05:55:25;94880.00;;;18.67
24278;BMP280;12394;42.692;23.314;2023-05-29T05:57:53;94892.41;;;18.89
24278;BMP280;12394;42.692;23.314;2023-05-29T06:00:18;94894.91;;;19.01
24278;BMP280;12394;42.692;23.314;2023-05-29T06:02:44;94894.63;;;19.18
24278;BMP280;12394;42.692;23.314;2023-05-29T06:05:10;94877.97;;;19.17
24278;BMP280;12394;42.692;23.314;2023-05-29T06:07:36;94883.56;;;19.37
24278;BMP280;12394;42.692;23.314;2023-05-29T06:10:03;94887.41;;;19.45
24278;BMP280;12394;42.692;23.314;2023-05-29T06:12:30;94884.16;;;19.50
24278;BMP280;12394;42.692;23.314;2023-05-29T06:15:17;94888.88;;;19.65
24278;BMP280;12394;42.692;23.314;2023-05-29T06:17:42;94887.84;;;19.71
24278;BMP280;12394;42.692;23.314;2023-05-29T06:20:08;94896.66;;;19.77
24278;BMP280;12394;42.692;23.314;2023-05-29T06:22:36;94903.00;;;19.89
24278;BMP280;12394;42.692;23.314;2023-05-29T06:25:01;94910.38;;;19.85
24278;BMP280;12394;42.692;23.314;2023-05-29T06:27:27;94906.41;;;19.80
24278;BMP280;12394;42.692;23.314;2023-05-29T06:29:52;94896.38;;;19.84
24278;BMP280;12394;42.692;23.314;2023-05-29T06:32:17;94904.25;;;20.12
24278;BMP280;12394;42.692;23.314;2023-05-29T06:34:43;94912.16;;;20.39
24278;BMP280;12394;42.692;23.314;2023-05-29T06:37:08;94908.19;;;20.58
24278;BMP280;12394;42.692;23.314;2023-05-29T06:39:35;94906.19;;;20.53
24278;BMP280;12394;42.692;23.314;2023-05-29T06:42:01;94895.13;;;20.46
24278;BMP280;12394;42.692;23.314;2023-05-29T06:44:27;94897.97;;;20.66
24278;BMP280;12394;42.692;23.314;2023-05-29T06:46:52;94897.97;;;20.66
24278;BMP280;12394;42.692;23.314;2023-05-29T06:49:18;94901.47;;;20.72
24278;BMP280;12394;42.692;23.314;2023-05-29T06:51:44;94908.53;;;20.99
24278;BMP280;12394;42.692;23.314;2023-05-29T06:54:09;94902.13;;;21.14
24278;BMP280;12394;42.692;23.314;2023-05-29T06:56:35;94894.38;;;21.25
24278;BMP280;12394;42.692;23.314;2023-05-29T06:59:00;94910.25;;;21.35
24278;BMP280;12394;42.692;23.314;2023-05-29T07:01:26;94901.97;;;21.33
24278;BMP280;12394;42.692;23.314;2023-05-29T07:03:52;94902.91;;;21.44
24278;BMP280;12394;42.692;23.314;2023-05-29T07:06:17;94904.34;;;21.84
24278;BMP280;12394;42.692;23.314;2023-05-29T07:08:43;94902.41;;;22.13
24278;BMP280;12394;42.692;23.314;2023-05-29T07:11:08;94902.00;;;22.35
24278;BMP280;12394;42.692;23.314;2023-05-29T07:13:34;94911.56;;;22.42
24278;BMP280;12394;42.692;23.314;2023-05-29T07:16:00;94892.56;;;22.34
24278;BMP280;12394;42.692;23.314;2023-05-29T07:18:26;94912.38;;;22.48
24278;BMP280;12394;42.692;23.314;2023-05-29T07:20:51;94897.03;;;22.43
24278;BMP280;12394;42.692;23.314;2023-05-29T07:23:16;94897.59;;;22.67
24278;BMP280;12394;42.692;23.314;2023-05-29T07:25:42;94902.56;;;22.74
24278;BMP280;12394;42.692;23.314;2023-05-29T07:28:07;94893.19;;;22.64
24278;BMP280;12394;42.692;23.314;2023-05-29T07:30:32;94903.91;;;22.49
24278;BMP280;12394;42.692;23.314;2023-05-29T07:32:58;94902.31;;;22.23
24278;BMP280;12394;42.692;23.314;2023-05-29T07:35:23;94902.00;;;22.35
24278;BMP280;12394;42.692;23.314;2023-05-29T07:37:49;94912.41;;;22.33
24278;BMP280;12394;42.692;23.314;2023-05-29T07:40:19;94906.53;;;22.29
24278;BMP280;12394;42.692;23.314;2023-05-29T07:42:45;94905.81;;;22.14
24278;BMP280;12394;42.692;23.314;2023-05-29T07:45:10;94899.47;;;21.82
24278;BMP280;12394;42.692;23.314;2023-05-29T07:47:36;94903.06;;;21.79
24278;BMP280;12394;42.692;23.314;2023-05-29T07:50:02;94905.25;;;21.66
24278;BMP280;12394;42.692;23.314;2023-05-29T07:52:29;94905.97;;;21.52
24278;BMP280;12394;42.692;23.314;2023-05-29T07:54:55;94892.91;;;21.54
24278;BMP280;12394;42.692;23.314;2023-05-29T07:57:22;94893.56;;;21.63
24278;BMP280;12394;42.692;23.314;2023-05-29T07:59:48;94887.28;;;22.40
24278;BMP280;12394;42.692;23.314;2023-05-29T08:02:17;94883.22;;;23.20
24278;BMP280;12394;42.692;23.314;2023-05-29T08:04:42;94863.59;;;23.69
24278;BMP280;12394;42.692;23.314;2023-05-29T08:07:08;94879.00;;;23.79
24278;BMP280;12394;42.692;23.314;2023-05-29T08:09:34;94895.25;;;23.81
24278;BMP280;12394;42.692;23.314;2023-05-29T08:12:00;94885.16;;;23.91
24278;BMP280;12394;42.692;23.314;2023-05-29T08:14:26;94895.63;;;23.43
24278;BMP280;12394;42.692;23.314;2023-05-29T08:16:51;94892.75;;;23.46
24278;BMP280;12394;42.692;23.314;2023-05-29T08:19:17;94892.81;;;23.52
24278;BMP280;12394;42.692;23.314;2023-05-29T08:21:42;94898.34;;;23.48
24278;BMP280;12394;42.692;23.314;2023-05-29T08:24:08;94904.50;;;23.34
24278;BMP280;12394;42.692;23.314;2023-05-29T08:26:34;94892.56;;;23.30
24278;BMP280;12394;42.692;23.314;2023-05-29T08:29:00;94897.13;;;23.70
24278;BMP280;12394;42.692;23.314;2023-05-29T08:31:25;94896.47;;;25.39
24278;BMP280;12394;42.692;23.314;2023-05-29T08:33:52;94884.78;;;26.87
24278;BMP280;12394;42.692;23.314;2023-05-29T08:36:18;94894.25;;;28.27
24278;BMP280;12394;42.692;23.314;2023-05-29T08:38:46;94899.44;;;29.17
24278;BMP280;12394;42.692;23.314;2023-05-29T08:41:25;94896.34;;;28.40
24278;BMP280;12394;42.692;23.314;2023-05-29T08:43:53;94888.78;;;29.49
24278;BMP280;12394;42.692;23.314;2023-05-29T08:46:18;94889.00;;;29.51
24278;BMP280;12394;42.692;23.314;2023-05-29T08:48:50;94877.66;;;28.96
24278;BMP280;12394;42.692;23.314;2023-05-29T08:51:23;94882.22;;;29.63
24278;BMP280;12394;42.692;23.314;2023-05-29T08:53:55;94874.94;;;29.58
24278;BMP280;12394;42.692;23.314;2023-05-29T08:56:21;94880.84;;;29.38
24278;BMP280;12394;42.692;23.314;2023-05-29T08:58:47;94877.66;;;30.22
24278;BMP280;12394;42.692;23.314;2023-05-29T09:01:14;94876.88;;;31.19
24278;BMP280;12394;42.692;23.314;2023-05-29T09:03:39;94862.56;;;30.58
24278;BMP280;12394;42.692;23.314;2023-05-29T09:06:07;94860.28;;;30.75
24278;BMP280;12394;42.692;23.314;2023-05-29T09:08:34;94873.56;;;31.13
24278;BMP280;12394;42.692;23.314;2023-05-29T09:10:59;94871.28;;;30.77
24278;BMP280;12394;42.692;23.314;2023-05-29T09:13:25;94860.66;;;31.53
24278;BMP280;12394;42.692;23.314;2023-05-29T09:15:57;94853.56;;;32.46
24278;BMP280;12394;42.692;23.314;2023-05-29T09:18:22;94854.06;;;32.65
24278;BMP280;12394;42.692;23.314;2023-05-29T09:20:48;94854.59;;;31.26
24278;BMP280;12394;42.692;23.314;2023-05-29T09:23:13;94846.81;;;29.85
24278;BMP280;12394;42.692;23.314;2023-05-29T09:25:42;94844.56;;;28.53
24278;BMP280;12394;42.692;23.314;2023-05-29T09:28:08;94842.63;;;27.69
24278;BMP280;12394;42.692;23.314;2023-05-29T09:33:04;94837.66;;;26.91
24278;BMP280;12394;42.692;23.314;2023-05-29T09:38:08;94825.88;;;26.09
24278;BMP280;12394;42.692;23.314;2023-05-29T09:40:39;94822.00;;;25.93
24278;BMP280;12394;42.692;23.314;2023-05-29T09:43:16;94818.13;;;28.33
24278;BMP280;12394;42.692;23.314;2023-05-29T09:45:47;94819.50;;;30.08
24278;BMP280;12394;42.692;23.314;2023-05-29T09:48:14;94819.13;;;32.05
24278;BMP280;12394;42.692;23.314;2023-05-29T09:50:40;94808.38;;;33.13
24278;BMP280;12394;42.692;23.314;2023-05-29T09:53:23;94821.72;;;32.67
24278;BMP280;12394;42.692;23.314;2023-05-29T09:55:51;94816.56;;;31.24
24278;BMP280;12394;42.692;23.314;2023-05-29T09:58:20;94810.91;;;29.77
24278;BMP280;12394;42.692;23.314;2023-05-29T10:00:46;94807.09;;;29.16
24278;BMP280;12394;42.692;23.314;2023-05-29T10:03:16;94797.34;;;28.95
24278;BMP280;12394;42.692;23.314;2023-05-29T10:05:43;94798.09;;;29.14
24278;BMP280;12394;42.692;23.314;2023-05-29T10:08:12;94799.75;;;31.93
24278;BMP280;12394;42.692;23.314;2023-05-29T10:10:40;94802.22;;;33.78
24278;BMP280;12394;42.692;23.314;2023-05-29T10:13:10;94805.84;;;35.69
24278;BMP280;12394;42.692;23.314;2023-05-29T10:15:37;94796.59;;;37.71
24278;BMP280;12394;42.692;23.314;2023-05-29T10:18:32;94795.81;;;38.72
24278;BMP280;12394;42.692;23.314;2023-05-29T10:20:59;94801.88;;;38.51
24278;BMP280;12394;42.692;23.314;2023-05-29T10:23:28;94792.44;;;38.16
24278;BMP280;12394;42.692;23.314;2023-05-29T10:25:58;94795.16;;;38.06
24278;BMP280;12394;42.692;23.314;2023-05-29T10:28:27;94790.44;;;36.31
24278;BMP280;12394;42.692;23.314;2023-05-29T10:31:02;94789.16;;;34.07
24278;BMP280;12394;42.692;23.314;2023-05-29T10:33:40;94785.84;;;33.33
24278;BMP280;12394;42.692;23.314;2023-05-29T10:36:16;94772.91;;;33.03
24278;BMP280;12394;42.692;23.314;2023-05-29T10:38:46;94778.66;;;32.84
24278;BMP280;12394;42.692;23.314;2023-05-29T10:44:00;94779.03;;;30.60
24278;BMP280;12394;42.692;23.314;2023-05-29T10:49:16;94768.38;;;28.82
24278;BMP280;12394;42.692;23.314;2023-05-29T10:51:41;94769.22;;;28.04
24278;BMP280;12394;42.692;23.314;2023-05-29T10:54:07;94758.03;;;27.35
24278;BMP280;12394;42.692;23.314;2023-05-29T10:56:32;94772.84;;;26.65
24278;BMP280;12394;42.692;23.314;2023-05-29T10:58:59;94765.94;;;26.06
24278;BMP280;12394;42.692;23.314;2023-05-29T11:01:27;94759.88;;;25.89
24278;BMP280;12394;42.692;23.314;2023-05-29T11:06:49;94751.84;;;25.39
24278;BMP280;12394;42.692;23.314;2023-05-29T11:12:23;94738.69;;;25.30
24278;BMP280;12394;42.692;23.314;2023-05-29T11:20:05;94739.19;;;25.56
24278;BMP280;12394;42.692;23.314;2023-05-29T11:25:16;94732.59;;;25.46
24278;BMP280;12394;42.692;23.314;2023-05-29T11:27:44;94738.66;;;25.36
24278;BMP280;12394;42.692;23.314;2023-05-29T11:30:11;94741.84;;;25.34
24278;BMP280;12394;42.692;23.314;2023-05-29T11:32:37;94745.72;;;25.44
24278;BMP280;12394;42.692;23.314;2023-05-29T11:35:08;94738.66;;;25.41
24278;BMP280;12394;42.692;23.314;2023-05-29T11:37:35;94742.31;;;25.49
24278;BMP280;12394;42.692;23.314;2023-05-29T11:40:06;94722.09;;;25.26
24278;BMP280;12394;42.692;23.314;2023-05-29T11:42:32;94728.69;;;25.42
24278;BMP280;12394;42.692;23.314;2023-05-29T11:45:17;94724.31;;;25.55
24278;BMP280;12394;42.692;23.314;2023-05-29T11:47:58;94713.31;;;25.87
24278;BMP280;12394;42.692;23.314;2023-05-29T11:50:26;94717.16;;;26.08
24278;BMP280;12394;42.692;23.314;2023-05-29T11:52:52;94722.31;;;26.00
24278;BMP280;12394;42.692;23.314;2023-05-29T11:55:21;94736.00;;;25.63
24278;BMP280;12394;42.692;23.314;2023-05-29T11:57:48;94736.47;;;25.12
24278;BMP280;12394;42.692;23.314;2023-05-29T12:00:15;94715.66;;;24.68
24278;BMP280;12394;42.692;23.314;2023-05-29T12:02:41;94720.97;;;24.46
24278;BMP280;12394;42.692;23.314;2023-05-29T12:05:12;94713.38;;;24.33
24278;BMP280;12394;42.692;23.314;2023-05-29T12:07:47;94706.06;;;23.85
24278;BMP280;12394;42.692;23.314;2023-05-29T12:10:15;94710.41;;;23.77
24278;BMP280;12394;42.692;23.314;2023-05-29T12:12:41;94733.53;;;23.86
24278;BMP280;12394;42.692;23.314;2023-05-29T12:15:07;94753.44;;;22.96
24278;BMP280;12394;42.692;23.314;2023-05-29T12:17:34;94751.72;;;22.12
24278;BMP280;12394;42.692;23.314;2023-05-29T12:20:03;94774.59;;;21.55
24278;BMP280;12394;42.692;23.314;2023-05-29T12:22:37;94771.03;;;20.28
24278;BMP280;12394;42.692;23.314;2023-05-29T12:25:07;94773.25;;;19.64
24278;BMP280;12394;42.692;23.314;2023-05-29T12:27:34;94766.84;;;19.37
24278;BMP280;12394;42.692;23.314;2023-05-29T12:30:07;94759.69;;;19.01
24278;BMP280;12394;42.692;23.314;2023-05-29T12:32:41;94771.66;;;18.70
24278;BMP280;12394;42.692;23.314;2023-05-29T12:35:23;94770.44;;;18.43
24278;BMP280;12394;42.692;23.314;2023-05-29T12:40:26;94773.31;;;16.95
24278;BMP280;12394;42.692;23.314;2023-05-29T12:42:59;94776.69;;;16.73
24278;BMP280;12394;42.692;23.314;2023-05-29T12:45:27;94765.19;;;16.67
24278;BMP280;12394;42.692;23.314;2023-05-29T12:50:32;94769.03;;;16.88
24278;BMP280;12394;42.692;23.314;2023-05-29T12:53:09;94772.59;;;16.94
24278;BMP280;12394;42.692;23.314;2023-05-29T12:55:37;94766.47;;;16.97
24278;BMP280;12394;42.692;23.314;2023-05-29T12:58:07;94769.66;;;17.45
24278;BMP280;12394;42.692;23.314;2023-05-29T13:00:35;94766.72;;;17.73
24278;BMP280;12394;42.692;23.314;2023-05-29T13:03:00;94768.84;;;17.88
24278;BMP280;12394;42.692;23.314;2023-05-29T13:05:26;94768.63;;;18.22
24278;BMP280;12394;42.692;23.314;2023-05-29T13:07:52;94772.19;;;18.37
24278;BMP280;12394;42.692;23.314;2023-05-29T13:10:21;94771.91;;;18.53
24278;BMP280;12394;42.692;23.314;2023-05-29T13:12:48;94773.56;;;18.78
24278;BMP280;12394;42.692;23.314;2023-05-29T13:15:20;94770.16;;;18.87
24278;BMP280;12394;42.692;23.314;2023-05-29T13:17:46;94771.03;;;19.02
24278;BMP280;12394;42.692;23.314;2023-05-29T13:20:13;94765.72;;;19.20
24278;BMP280;12394;42.692;23.314;2023-05-29T13:22:40;94757.69;;;19.47
24278;BMP280;12394;42.692;23.314;2023-05-29T13:25:07;94753.22;;;19.63
24278;BMP280;12394;42.692;23.314;2023-05-29T13:27:35;94767.28;;;19.87
24278;BMP280;12394;42.692;23.314;2023-05-29T13:30:02;94754.25;;;19.98
24278;BMP280;12394;42.692;23.314;2023-05-29T13:32:27;94758.56;;;20.19
24278;BMP280;12394;42.692;23.314;2023-05-29T13:34:53;94764.25;;;20.27
24278;BMP280;12394;42.692;23.314;2023-05-29T13:37:18;94751.56;;;20.31
24278;BMP280;12394;42.692;23.314;2023-05-29T13:39:43;94761.00;;;20.56
24278;BMP280;12394;42.692;23.314;2023-05-29T13:42:09;94765.25;;;20.62
24278;BMP280;12394;42.692;23.314;2023-05-29T13:44:36;94751.84;;;20.57
24278;BMP280;12394;42.692;23.314;2023-05-29T13:47:02;94758.38;;;20.85
24278;BMP280;12394;42.692;23.314;2023-05-29T13:49:27;94762.19;;;20.93
24278;BMP280;12394;42.692;23.314;2023-05-29T13:51:52;94750.31;;;20.94
24278;BMP280;12394;42.692;23.314;2023-05-29T13:54:18;94757.19;;;21.24
24278;BMP280;12394;42.692;23.314;2023-05-29T13:56:43;94751.16;;;21.59
24278;BMP280;12394;42.692;23.314;2023-05-29T13:59:09;94751.78;;;21.98
24278;BMP280;12394;42.692;23.314;2023-05-29T14:01:35;94749.72;;;22.28
24278;BMP280;12394;42.692;23.314;2023-05-29T14:04:00;94762.94;;;22.16
24278;BMP280;12394;42.692;23.314;2023-05-29T14:06:26;94761.03;;;22.02
24278;BMP280;12394;42.692;23.314;2023-05-29T14:08:52;94771.34;;;21.80
24278;BMP280;12394;42.692;23.314;2023-05-29T14:11:18;94766.06;;;21.36
24278;BMP280;12394;42.692;23.314;2023-05-29T14:13:44;94762.22;;;21.22
24278;BMP280;12394;42.692;23.314;2023-05-29T14:16:09;94766.59;;;21.11
24278;BMP280;12394;42.692;23.314;2023-05-29T14:18:35;94767.78;;;21.10
24278;BMP280;12394;42.692;23.314;2023-05-29T14:21:00;94775.25;;;21.20
24278;BMP280;12394;42.692;23.314;2023-05-29T14:23:26;94768.81;;;21.27
24278;BMP280;12394;42.692;23.314;2023-05-29T14:25:51;94773.41;;;21.26
24278;BMP280;12394;42.692;23.314;2023-05-29T14:28:17;94776.25;;;21.38
24278;BMP280;12394;42.692;23.314;2023-05-29T14:30:42;94773.31;;;21.50